sensor_id;sensor_type;location;lat;lon;timestamp;pressure;altitude;pressure_sealevel;temperature;humidity
59375;BME280;45172;55.006;73.460;2022-10-16T00:01:24;101033.06;;;7.73;nan
59375;BME280;45172;55.006;73.460;2022-10-16T00:03:51;101030.84;;;7.38;nan
59375;BME280;45172;55.006;73.460;2022-10-16T00:06:19;100950.56;;;6.84;nan
59375;BME280;45172;55.006;73.460;2022-10-16T00:08:51;101038.41;;;7.29;nan
59375;BME280;45172;55.006;73.460;2022-10-16T00:11:27;101043.59;;;7.27;nan
59375;BME280;45172;55.006;73.460;2022-10-16T00:13:57;101016.63;;;7.11;nan
59375;BME280;45172;55.006;73.460;2022-10-16T00:16:23;101005.06;;;7.08;nan
59375;BME280;45172;55.006;73.460;2022-10-16T00:18:49;101029.41;;;7.23;nan
59375;BME280;45172;55.006;73.460;2022-10-16T00:21:21;101031.00;;;7.20;nan
59375;BME280;45172;55.006;73.460;2022-10-16T00:23:54;101035.78;;;7.51;nan
59375;BME280;45172;55.006;73.460;2022-10-16T00:26:28;101026.59;;;7.19;nan
59375;BME280;45172;55.006;73.460;2022-10-16T00:33:52;101040.31;;;7.10;nan
59375;BME280;45172;55.006;73.460;2022-10-16T00:36:21;101040.81;;;7.01;nan
59375;BME280;45172;55.006;73.460;2022-10-16T00:38:50;101031.72;;;6.93;nan
59375;BME280;45172;55.006;73.460;2022-10-16T00:41:19;101010.66;;;7.16;nan
59375;BME280;45172;55.006;73.460;2022-10-16T00:43:55;101041.59;;;6.98;nan
59375;BME280;45172;55.006;73.460;2022-10-16T00:46:27;101006.91;;;7.09;nan
59375;BME280;45172;55.006;73.460;2022-10-16T00:49:05;101021.94;;;6.90;nan
59375;BME280;45172;55.006;73.460;2022-10-16T00:51:40;101024.28;;;6.82;nan
59375;BME280;45172;55.006;73.460;2022-10-16T00:54:19;101022.03;;;6.70;nan
59375;BME280;45172;55.006;73.460;2022-10-16T00:56:46;101014.94;;;6.69;nan
59375;BME280;45172;55.006;73.460;2022-10-16T01:01:45;101027.13;;;6.67;nan
59375;BME280;45172;55.006;73.460;2022-10-16T01:04:11;100994.03;;;6.32;nan
59375;BME280;45172;55.006;73.460;2022-10-16T01:10:06;101027.09;;;6.25;nan
59375;BME280;45172;55.006;73.460;2022-10-16T01:12:38;101036.72;;;6.24;nan
59375;BME280;45172;55.006;73.460;2022-10-16T01:21:03;101030.16;;;5.96;nan
59375;BME280;45172;55.006;73.460;2022-10-16T01:29:36;101030.84;;;5.72;nan
59375;BME280;45172;55.006;73.460;2022-10-16T01:40:20;101030.19;;;5.76;nan
59375;BME280;45172;55.006;73.460;2022-10-16T01:42:54;101033.44;;;5.71;nan
59375;BME280;45172;55.006;73.460;2022-10-16T01:45:22;100993.06;;;5.51;nan
59375;BME280;45172;55.006;73.460;2022-10-16T01:47:51;101014.75;;;5.65;nan
59375;BME280;45172;55.006;73.460;2022-10-16T01:50:19;100980.41;;;5.42;nan
59375;BME280;45172;55.006;73.460;2022-10-16T01:52:48;101022.72;;;5.66;nan
59375;BME280;45172;55.006;73.460;2022-10-16T01:55:22;101028.19;;;5.71;nan
59375;BME280;45172;55.006;73.460;2022-10-16T01:57:59;101006.94;;;5.66;nan
59375;BME280;45172;55.006;73.460;2022-10-16T02:00:27;101024.63;;;5.70;nan
59375;BME280;45172;55.006;73.460;2022-10-16T02:02:55;101022.97;;;5.72;nan
59375;BME280;45172;55.006;73.460;2022-10-16T02:07:53;101018.91;;;5.79;nan
59375;BME280;45172;55.006;73.460;2022-10-16T02:10:20;101014.00;;;5.67;nan
59375;BME280;45172;55.006;73.460;2022-10-16T02:12:52;101012.31;;;5.69;nan
59375;BME280;45172;55.006;73.460;2022-10-16T02:15:21;101006.09;;;5.67;nan
59375;BME280;45172;55.006;73.460;2022-10-16T02:20:13;101005.75;;;5.79;nan
59375;BME280;45172;55.006;73.460;2022-10-16T02:22:46;101015.44;;;5.80;nan
59375;BME280;45172;55.006;73.460;2022-10-16T02:25:35;100985.47;;;5.57;nan
59375;BME280;45172;55.006;73.460;2022-10-16T02:28:19;101009.16;;;5.76;nan
59375;BME280;45172;55.006;73.460;2022-10-16T02:33:26;101007.75;;;5.85;nan
59375;BME280;45172;55.006;73.460;2022-10-16T02:35:55;101014.94;;;5.89;nan
59375;BME280;45172;55.006;73.460;2022-10-16T02:38:23;101015.75;;;6.26;nan
59375;BME280;45172;55.006;73.460;2022-10-16T02:40:50;101007.34;;;5.95;nan
59375;BME280;45172;55.006;73.460;2022-10-16T02:43:16;101018.97;;;6.00;nan
59375;BME280;45172;55.006;73.460;2022-10-16T02:45:43;101011.19;;;6.02;nan
59375;BME280;45172;55.006;73.460;2022-10-16T02:48:09;101020.03;;;6.04;nan
59375;BME280;45172;55.006;73.460;2022-10-16T02:50:35;101017.63;;;6.09;nan
59375;BME280;45172;55.006;73.460;2022-10-16T02:53:01;101020.84;;;6.42;nan
59375;BME280;45172;55.006;73.460;2022-10-16T02:55:27;101026.31;;;6.27;nan
59375;BME280;45172;55.006;73.460;2022-10-16T02:57:54;101022.06;;;6.31;nan
59375;BME280;45172;55.006;73.460;2022-10-16T03:00:25;101014.06;;;6.28;nan
59375;BME280;45172;55.006;73.460;2022-10-16T03:02:51;101017.38;;;6.43;nan
59375;BME280;45172;55.006;73.460;2022-10-16T03:05:17;101010.63;;;6.50;nan
59375;BME280;45172;55.006;73.460;2022-10-16T03:10:09;101005.31;;;6.70;nan
59375;BME280;45172;55.006;73.460;2022-10-16T03:12:44;100959.56;;;6.47;nan
59375;BME280;45172;55.006;73.460;2022-10-16T03:15:10;101003.78;;;6.75;nan
59375;BME280;45172;55.006;73.460;2022-10-16T03:17:47;100970.97;;;6.67;nan
59375;BME280;45172;55.006;73.460;2022-10-16T03:20:13;100997.38;;;6.91;nan
59375;BME280;45172;55.006;73.460;2022-10-16T03:22:43;100986.84;;;6.91;nan
59375;BME280;45172;55.006;73.460;2022-10-16T03:25:20;100997.13;;;7.06;nan
59375;BME280;45172;55.006;73.460;2022-10-16T03:27:46;101001.84;;;7.15;nan
59375;BME280;45172;55.006;73.460;2022-10-16T03:30:12;100979.75;;;7.11;nan
59375;BME280;45172;55.006;73.460;2022-10-16T03:32:40;100995.34;;;7.28;nan
59375;BME280;45172;55.006;73.460;2022-10-16T03:37:37;100997.94;;;7.74;nan
59375;BME280;45172;55.006;73.460;2022-10-16T03:40:04;100972.50;;;7.51;nan
59375;BME280;45172;55.006;73.460;2022-10-16T03:42:30;100990.53;;;7.63;nan
59375;BME280;45172;55.006;73.460;2022-10-16T03:44:56;100997.13;;;7.75;nan
59375;BME280;45172;55.006;73.460;2022-10-16T03:47:22;100993.19;;;7.88;nan
59375;BME280;45172;55.006;73.460;2022-10-16T03:49:49;100989.25;;;8.01;nan
59375;BME280;45172;55.006;73.460;2022-10-16T03:52:16;100992.50;;;8.18;nan
59375;BME280;45172;55.006;73.460;2022-10-16T03:54:42;100987.72;;;8.56;nan
59375;BME280;45172;55.006;73.460;2022-10-16T03:57:14;100979.53;;;8.50;nan
59375;BME280;45172;55.006;73.460;2022-10-16T03:59:40;100980.50;;;8.78;nan
59375;BME280;45172;55.006;73.460;2022-10-16T04:02:06;100981.09;;;8.69;nan
59375;BME280;45172;55.006;73.460;2022-10-16T04:04:34;100973.09;;;8.95;nan
59375;BME280;45172;55.006;73.460;2022-10-16T04:07:10;100963.84;;;8.81;nan
59375;BME280;45172;55.006;73.460;2022-10-16T04:09:46;100978.38;;;8.95;nan
59375;BME280;45172;55.006;73.460;2022-10-16T04:12:12;100950.81;;;8.87;nan
59375;BME280;45172;55.006;73.460;2022-10-16T04:14:38;100976.44;;;9.17;nan
59375;BME280;45172;55.006;73.460;2022-10-16T04:17:14;100984.94;;;9.36;nan
59375;BME280;45172;55.006;73.460;2022-10-16T04:19:40;100981.72;;;9.46;nan
59375;BME280;45172;55.006;73.460;2022-10-16T04:22:06;100977.28;;;9.76;nan
59375;BME280;45172;55.006;73.460;2022-10-16T04:24:42;100960.06;;;9.90;nan
59375;BME280;45172;55.006;73.460;2022-10-16T04:27:08;100966.16;;;10.20;nan
59375;BME280;45172;55.006;73.460;2022-10-16T04:29:34;100929.53;;;10.03;nan
59375;BME280;45172;55.006;73.460;2022-10-16T04:32:00;100916.19;;;10.32;nan
59375;BME280;45172;55.006;73.460;2022-10-16T04:34:26;100961.50;;;10.78;nan
59375;BME280;45172;55.006;73.460;2022-10-16T04:36:52;100928.50;;;10.65;nan
59375;BME280;45172;55.006;73.460;2022-10-16T04:39:18;100964.56;;;10.95;nan
59375;BME280;45172;55.006;73.460;2022-10-16T04:41:54;100959.00;;;10.85;nan
59375;BME280;45172;55.006;73.460;2022-10-16T04:44:20;100955.63;;;10.92;nan
59375;BME280;45172;55.006;73.460;2022-10-16T04:46:51;100958.88;;;11.17;nan
59375;BME280;45172;55.006;73.460;2022-10-16T04:49:17;100928.81;;;11.16;nan
59375;BME280;45172;55.006;73.460;2022-10-16T04:51:51;100956.84;;;11.46;nan
59375;BME280;45172;55.006;73.460;2022-10-16T04:54:17;100923.97;;;11.40;nan
59375;BME280;45172;55.006;73.460;2022-10-16T04:56:43;100960.16;;;11.77;nan
59375;BME280;45172;55.006;73.460;2022-10-16T04:59:23;100956.97;;;11.97;nan
59375;BME280;45172;55.006;73.460;2022-10-16T05:01:58;100946.69;;;12.13;nan
59375;BME280;45172;55.006;73.460;2022-10-16T05:04:24;100950.50;;;12.27;nan
59375;BME280;45172;55.006;73.460;2022-10-16T05:06:55;100939.06;;;12.31;nan
59375;BME280;45172;55.006;73.460;2022-10-16T05:09:32;100949.91;;;12.42;nan
59375;BME280;45172;55.006;73.460;2022-10-16T05:11:58;100940.31;;;12.52;nan
59375;BME280;45172;55.006;73.460;2022-10-16T05:14:24;100949.44;;;12.68;nan
59375;BME280;45172;55.006;73.460;2022-10-16T05:16:50;100942.44;;;12.73;nan
59375;BME280;45172;55.006;73.460;2022-10-16T05:19:27;100956.72;;;12.80;nan
59375;BME280;45172;55.006;73.460;2022-10-16T05:21:58;100919.28;;;12.66;nan
59375;BME280;45172;55.006;73.460;2022-10-16T05:24:30;100942.56;;;12.83;nan
59375;BME280;45172;55.006;73.460;2022-10-16T05:26:56;100942.63;;;12.84;nan
59375;BME280;45172;55.006;73.460;2022-10-16T05:29:22;100945.41;;;12.94;nan
59375;BME280;45172;55.006;73.460;2022-10-16T05:31:52;100941.09;;;13.02;nan
59375;BME280;45172;55.006;73.460;2022-10-16T05:34:19;100941.13;;;13.05;nan
59375;BME280;45172;55.006;73.460;2022-10-16T05:36:46;100918.00;;;12.98;nan
59375;BME280;45172;55.006;73.460;2022-10-16T05:39:14;100951.16;;;13.22;nan
59375;BME280;45172;55.006;73.460;2022-10-16T05:41:41;100942.34;;;13.27;nan
59375;BME280;45172;55.006;73.460;2022-10-16T05:44:07;100954.81;;;13.30;nan
59375;BME280;45172;55.006;73.460;2022-10-16T05:46:34;100953.84;;;13.25;nan
59375;BME280;45172;55.006;73.460;2022-10-16T05:49:05;100940.47;;;13.20;nan
59375;BME280;45172;55.006;73.460;2022-10-16T05:51:41;100941.50;;;13.30;nan
59375;BME280;45172;55.006;73.460;2022-10-16T05:54:12;100938.13;;;13.42;nan
59375;BME280;45172;55.006;73.460;2022-10-16T05:56:39;100937.50;;;13.60;nan
59375;BME280;45172;55.006;73.460;2022-10-16T05:59:05;100945.59;;;13.69;nan
59375;BME280;45172;55.006;73.460;2022-10-16T06:01:32;100948.31;;;13.77;nan
59375;BME280;45172;55.006;73.460;2022-10-16T06:03:58;100935.97;;;13.82;nan
59375;BME280;45172;55.006;73.460;2022-10-16T06:06:35;100940.56;;;13.97;nan
59375;BME280;45172;55.006;73.460;2022-10-16T06:09:02;100941.53;;;14.04;nan
59375;BME280;45172;55.006;73.460;2022-10-16T06:11:31;100936.22;;;14.06;nan
59375;BME280;45172;55.006;73.460;2022-10-16T06:14:00;100933.53;;;14.04;nan
59375;BME280;45172;55.006;73.460;2022-10-16T06:16:28;100925.47;;;13.98;nan
59375;BME280;45172;55.006;73.460;2022-10-16T06:18:55;100906.78;;;13.93;nan
59375;BME280;45172;55.006;73.460;2022-10-16T06:21:26;100928.25;;;14.09;nan
59375;BME280;45172;55.006;73.460;2022-10-16T06:23:54;100944.09;;;13.96;nan
59375;BME280;45172;55.006;73.460;2022-10-16T06:26:28;100949.38;;;13.90;nan
59375;BME280;45172;55.006;73.460;2022-10-16T06:28:57;100937.81;;;13.88;nan
59375;BME280;45172;55.006;73.460;2022-10-16T06:31:25;100933.19;;;13.75;nan
59375;BME280;45172;55.006;73.460;2022-10-16T06:33:54;100942.13;;;13.77;nan
59375;BME280;45172;55.006;73.460;2022-10-16T06:36:20;100940.28;;;13.71;nan
59375;BME280;45172;55.006;73.460;2022-10-16T06:38:46;100945.63;;;13.71;nan
59375;BME280;45172;55.006;73.460;2022-10-16T06:41:17;100935.81;;;13.68;nan
59375;BME280;45172;55.006;73.460;2022-10-16T06:43:44;100920.63;;;13.61;nan
59375;BME280;45172;55.006;73.460;2022-10-16T06:46:18;100917.94;;;13.56;nan
59375;BME280;45172;55.006;73.460;2022-10-16T06:48:44;100878.56;;;13.32;nan
59375;BME280;45172;55.006;73.460;2022-10-16T06:51:15;100932.25;;;13.68;nan
59375;BME280;45172;55.006;73.460;2022-10-16T06:53:43;100931.41;;;13.70;nan
59375;BME280;45172;55.006;73.460;2022-10-16T06:56:14;100886.66;;;13.43;nan
59375;BME280;45172;55.006;73.460;2022-10-16T06:58:52;100921.59;;;13.68;nan
59375;BME280;45172;55.006;73.460;2022-10-16T07:01:20;100867.13;;;13.42;nan
59375;BME280;45172;55.006;73.460;2022-10-16T07:03:47;100909.22;;;13.72;nan
59375;BME280;45172;55.006;73.460;2022-10-16T07:06:16;100916.28;;;13.68;nan
59375;BME280;45172;55.006;73.460;2022-10-16T07:08:43;100908.28;;;13.68;nan
59375;BME280;45172;55.006;73.460;2022-10-16T07:11:19;100868.25;;;13.59;nan
59375;BME280;45172;55.006;73.460;2022-10-16T07:13:45;100894.31;;;13.89;nan
59375;BME280;45172;55.006;73.460;2022-10-16T07:16:16;100895.28;;;13.96;nan
59375;BME280;45172;55.006;73.460;2022-10-16T07:18:44;100883.69;;;13.94;nan
59375;BME280;45172;55.006;73.460;2022-10-16T07:21:14;100889.97;;;13.99;nan
59375;BME280;45172;55.006;73.460;2022-10-16T07:23:40;100892.72;;;14.07;nan
59375;BME280;45172;55.006;73.460;2022-10-16T07:26:07;100883.91;;;14.16;nan
59375;BME280;45172;55.006;73.460;2022-10-16T07:28:34;100889.19;;;14.11;nan
59375;BME280;45172;55.006;73.460;2022-10-16T07:31:05;100887.41;;;14.07;nan
59375;BME280;45172;55.006;73.460;2022-10-16T07:33:33;100879.50;;;14.16;nan
59375;BME280;45172;55.006;73.460;2022-10-16T07:35:59;100888.44;;;14.24;nan
59375;BME280;45172;55.006;73.460;2022-10-16T07:38:25;100883.13;;;14.28;nan
59375;BME280;45172;55.006;73.460;2022-10-16T07:41:03;100885.81;;;14.29;nan
59375;BME280;45172;55.006;73.460;2022-10-16T07:43:30;100876.88;;;14.24;nan
59375;BME280;45172;55.006;73.460;2022-10-16T07:46:02;100887.59;;;14.30;nan
59375;BME280;45172;55.006;73.460;2022-10-16T07:48:31;100848.41;;;14.17;nan
59375;BME280;45172;55.006;73.460;2022-10-16T07:51:02;100875.25;;;14.37;nan
59375;BME280;45172;55.006;73.460;2022-10-16T07:53:28;100866.22;;;14.22;nan
59375;BME280;45172;55.006;73.460;2022-10-16T07:56:02;100854.56;;;14.08;nan
59375;BME280;45172;55.006;73.460;2022-10-16T07:58:30;100842.94;;;14.00;nan
59375;BME280;45172;55.006;73.460;2022-10-16T08:00:56;100835.72;;;13.88;nan
59375;BME280;45172;55.006;73.460;2022-10-16T08:03:29;100862.50;;;14.03;nan
59375;BME280;45172;55.006;73.460;2022-10-16T08:05:57;100854.56;;;14.08;nan
59375;BME280;45172;55.006;73.460;2022-10-16T08:08:23;100852.81;;;14.13;nan
59375;BME280;45172;55.006;73.460;2022-10-16T08:10:50;100850.09;;;14.08;nan
59375;BME280;45172;55.006;73.460;2022-10-16T08:13:15;100846.53;;;14.03;nan
59375;BME280;45172;55.006;73.460;2022-10-16T08:15:42;100832.19;;;13.89;nan
59375;BME280;45172;55.006;73.460;2022-10-16T08:18:09;100849.06;;;13.94;nan
59375;BME280;45172;55.006;73.460;2022-10-16T08:20:35;100839.34;;;13.94;nan
59375;BME280;45172;55.006;73.460;2022-10-16T08:23:10;100844.63;;;13.93;nan
59375;BME280;45172;55.006;73.460;2022-10-16T08:25:37;100833.84;;;13.79;nan
59375;BME280;45172;55.006;73.460;2022-10-16T08:28:12;100847.25;;;13.85;nan
59375;BME280;45172;55.006;73.460;2022-10-16T08:30:38;100842.81;;;13.87;nan
59375;BME280;45172;55.006;73.460;2022-10-16T08:33:05;100833.00;;;13.81;nan
59375;BME280;45172;55.006;73.460;2022-10-16T08:35:32;100811.63;;;13.72;nan
59375;BME280;45172;55.006;73.460;2022-10-16T08:37:58;100833.94;;;13.88;nan
59375;BME280;45172;55.006;73.460;2022-10-16T08:40:31;100832.22;;;13.90;nan
59375;BME280;45172;55.006;73.460;2022-10-16T08:48:53;100816.97;;;13.75;nan
59375;BME280;45172;55.006;73.460;2022-10-16T08:51:29;100787.56;;;13.61;nan
59375;BME280;45172;55.006;73.460;2022-10-16T08:56:42;100827.72;;;13.89;nan
59375;BME280;45172;55.006;73.460;2022-10-16T08:59:10;100827.72;;;13.89;nan
59375;BME280;45172;55.006;73.460;2022-10-16T09:01:42;100817.06;;;13.83;nan
59375;BME280;45172;55.006;73.460;2022-10-16T09:04:37;100825.81;;;13.74;nan
59375;BME280;45172;55.006;73.460;2022-10-16T09:18:28;100820.66;;;13.90;nan
59375;BME280;45172;55.006;73.460;2022-10-16T09:23:36;100805.50;;;13.82;nan
59375;BME280;45172;55.006;73.460;2022-10-16T09:26:05;100811.75;;;13.86;nan
59375;BME280;45172;55.006;73.460;2022-10-16T09:28:32;100811.75;;;13.88;nan
59375;BME280;45172;55.006;73.460;2022-10-16T09:30:57;100815.31;;;13.87;nan
59375;BME280;45172;55.006;73.460;2022-10-16T09:33:29;100812.56;;;13.82;nan
59375;BME280;45172;55.006;73.460;2022-10-16T09:35:56;100807.25;;;13.82;nan
59375;BME280;45172;55.006;73.460;2022-10-16T09:38:29;100806.34;;;13.80;nan
59375;BME280;45172;55.006;73.460;2022-10-16T09:40:57;100811.66;;;13.78;nan
59375;BME280;45172;55.006;73.460;2022-10-16T09:43:35;100815.09;;;13.65;nan
59375;BME280;45172;55.006;73.460;2022-10-16T09:46:31;100816.78;;;13.56;nan
59375;BME280;45172;55.006;73.460;2022-10-16T09:48:59;100819.44;;;13.56;nan
59375;BME280;45172;55.006;73.460;2022-10-16T09:51:35;100817.50;;;13.45;nan
59375;BME280;45172;55.006;73.460;2022-10-16T09:56:35;100820.78;;;13.22;nan
59375;BME280;45172;55.006;73.460;2022-10-16T09:59:15;100820.66;;;13.12;nan
59375;BME280;45172;55.006;73.460;2022-10-16T10:01:55;100816.97;;;13.01;nan
59375;BME280;45172;55.006;73.460;2022-10-16T10:04:23;100820.53;;;13.00;nan
59375;BME280;45172;55.006;73.460;2022-10-16T10:06:57;100810.69;;;12.94;nan
59375;BME280;45172;55.006;73.460;2022-10-16T10:09:42;100824.03;;;12.97;nan
59375;BME280;45172;55.006;73.460;2022-10-16T10:12:23;100800.72;;;12.79;nan
59375;BME280;45172;55.006;73.460;2022-10-16T10:14:55;100824.91;;;12.96;nan
59375;BME280;45172;55.006;73.460;2022-10-16T10:17:22;100823.13;;;12.97;nan
59375;BME280;45172;55.006;73.460;2022-10-16T10:19:53;100817.88;;;13.03;nan
59375;BME280;45172;55.006;73.460;2022-10-16T10:25:14;100811.88;;;13.18;nan
59375;BME280;45172;55.006;73.460;2022-10-16T10:27:57;100803.91;;;13.20;nan
59375;BME280;45172;55.006;73.460;2022-10-16T10:30:48;100804.75;;;13.15;nan
59375;BME280;45172;55.006;73.460;2022-10-16T10:33:24;100806.44;;;13.10;nan
59375;BME280;45172;55.006;73.460;2022-10-16T10:39:08;100806.91;;;12.75;nan
59375;BME280;45172;55.006;73.460;2022-10-16T10:41:58;100806.06;;;12.79;nan
59375;BME280;45172;55.006;73.460;2022-10-16T10:44:56;100806.81;;;12.69;nan
59375;BME280;45172;55.006;73.460;2022-10-16T10:47:47;100790.41;;;12.39;nan
59375;BME280;45172;55.006;73.460;2022-10-16T10:50:30;100805.59;;;12.46;nan
59375;BME280;45172;55.006;73.460;2022-10-16T11:02:10;100797.97;;;12.13;nan
59375;BME280;45172;55.006;73.460;2022-10-16T11:05:02;100796.16;;;12.09;nan
59375;BME280;45172;55.006;73.460;2022-10-16T11:07:38;100801.47;;;12.09;nan
59375;BME280;45172;55.006;73.460;2022-10-16T11:12:57;100799.41;;;11.93;nan
59375;BME280;45172;55.006;73.460;2022-10-16T11:15:32;100802.81;;;11.85;nan
59375;BME280;45172;55.006;73.460;2022-10-16T11:18:40;100799.84;;;11.68;nan
59375;BME280;45172;55.006;73.460;2022-10-16T11:21:21;100798.97;;;11.69;nan
59375;BME280;45172;55.006;73.460;2022-10-16T11:24:05;100804.97;;;11.58;nan
59375;BME280;45172;55.006;73.460;2022-10-16T11:26:39;100796.13;;;11.56;nan
59375;BME280;45172;55.006;73.460;2022-10-16T11:29:19;100793.47;;;11.56;nan
59375;BME280;45172;55.006;73.460;2022-10-16T11:31:59;100788.94;;;11.52;nan
59375;BME280;45172;55.006;73.460;2022-10-16T11:34:36;100786.22;;;11.47;nan
59375;BME280;45172;55.006;73.460;2022-10-16T11:37:30;100781.66;;;11.40;nan
59375;BME280;45172;55.006;73.460;2022-10-16T11:40:05;100777.34;;;11.47;nan
59375;BME280;45172;55.006;73.460;2022-10-16T11:42:44;100788.03;;;11.50;nan
59375;BME280;45172;55.006;73.460;2022-10-16T11:45:33;100782.56;;;11.41;nan
59375;BME280;45172;55.006;73.460;2022-10-16T11:48:14;100770.03;;;11.35;nan
59375;BME280;45172;55.006;73.460;2022-10-16T11:51:26;100782.56;;;11.42;nan
59375;BME280;45172;55.006;73.460;2022-10-16T11:53:46;100784.25;;;11.37;nan
59375;BME280;45172;55.006;73.460;2022-10-16T11:56:18;100782.56;;;11.41;nan
59375;BME280;45172;55.006;73.460;2022-10-16T12:01:36;100779.69;;;11.30;nan
59375;BME280;45172;55.006;73.460;2022-10-16T12:07:03;100766.34;;;11.27;nan
59375;BME280;45172;55.006;73.460;2022-10-16T12:09:34;100760.13;;;11.24;nan
59375;BME280;45172;55.006;73.460;2022-10-16T12:12:00;100713.47;;;10.88;nan
59375;BME280;45172;55.006;73.460;2022-10-16T12:17:26;100749.59;;;10.83;nan
59375;BME280;45172;55.006;73.460;2022-10-16T12:20:26;100761.31;;;10.94;nan
59375;BME280;45172;55.006;73.460;2022-10-16T12:23:01;100749.88;;;10.97;nan
59375;BME280;45172;55.006;73.460;2022-10-16T12:25:36;100754.28;;;10.95;nan
59375;BME280;45172;55.006;73.460;2022-10-16T12:28:06;100753.50;;;11.01;nan
59375;BME280;45172;55.006;73.460;2022-10-16T12:30:43;100758.78;;;11.01;nan
59375;BME280;45172;55.006;73.460;2022-10-16T12:36:02;100754.59;;;10.69;nan
59375;BME280;45172;55.006;73.460;2022-10-16T12:38:45;100753.56;;;10.62;nan
59375;BME280;45172;55.006;73.460;2022-10-16T12:41:12;100744.25;;;10.81;nan
59375;BME280;45172;55.006;73.460;2022-10-16T12:43:49;100756.75;;;10.87;nan
59375;BME280;45172;55.006;73.460;2022-10-16T12:48:43;100752.41;;;10.91;nan
59375;BME280;45172;55.006;73.460;2022-10-16T12:51:33;100742.44;;;10.79;nan
59375;BME280;45172;55.006;73.460;2022-10-16T12:54:17;100740.47;;;10.68;nan
59375;BME280;45172;55.006;73.460;2022-10-16T13:05:30;100762.00;;;10.44;nan
59375;BME280;45172;55.006;73.460;2022-10-16T13:08:26;100758.88;;;10.24;nan
59375;BME280;45172;55.006;73.460;2022-10-16T13:20:06;100768.78;;;10.33;nan
59375;BME280;45172;55.006;73.460;2022-10-16T13:25:27;100756.00;;;10.14;nan
59375;BME280;45172;55.006;73.460;2022-10-16T13:28:11;100767.53;;;10.17;nan
59375;BME280;45172;55.006;73.460;2022-10-16T13:30:40;100756.19;;;10.22;nan
59375;BME280;45172;55.006;73.460;2022-10-16T13:33:41;100753.81;;;9.96;nan
59375;BME280;45172;55.006;73.460;2022-10-16T13:36:24;100755.44;;;9.91;nan
59375;BME280;45172;55.006;73.460;2022-10-16T13:39:28;100758.41;;;10.04;nan
59375;BME280;45172;55.006;73.460;2022-10-16T13:42:05;100754.41;;;9.84;nan
59375;BME280;45172;55.006;73.460;2022-10-16T13:44:43;100743.28;;;9.99;nan
59375;BME280;45172;55.006;73.460;2022-10-16T13:47:19;100749.53;;;10.02;nan
59375;BME280;45172;55.006;73.460;2022-10-16T13:49:46;100751.31;;;10.03;nan
59375;BME280;45172;55.006;73.460;2022-10-16T13:57:15;100738.13;;;9.69;nan
59375;BME280;45172;55.006;73.460;2022-10-16T13:59:43;100728.94;;;9.54;nan
59375;BME280;45172;55.006;73.460;2022-10-16T14:04:52;100737.44;;;9.76;nan
59375;BME280;45172;55.006;73.460;2022-10-16T14:07:31;100732.75;;;9.66;nan
59375;BME280;45172;55.006;73.460;2022-10-16T14:10:07;100730.09;;;9.64;nan
59375;BME280;45172;55.006;73.460;2022-10-16T14:12:44;100735.28;;;9.59;nan
59375;BME280;45172;55.006;73.460;2022-10-16T14:15:17;100738.50;;;9.48;nan
59375;BME280;45172;55.006;73.460;2022-10-16T14:17:50;100722.06;;;9.27;nan
59375;BME280;45172;55.006;73.460;2022-10-16T14:20:17;100732.78;;;9.32;nan
59375;BME280;45172;55.006;73.460;2022-10-16T14:22:43;100734.63;;;9.02;nan
59375;BME280;45172;55.006;73.460;2022-10-16T14:28:01;100731.25;;;9.08;nan
59375;BME280;45172;55.006;73.460;2022-10-16T14:30:58;100731.03;;;9.00;nan
59375;BME280;45172;55.006;73.460;2022-10-16T14:33:32;100726.81;;;8.75;nan
59375;BME280;45172;55.006;73.460;2022-10-16T14:38:28;100679.75;;;8.61;nan
59375;BME280;45172;55.006;73.460;2022-10-16T14:40:57;100725.47;;;8.89;nan
59375;BME280;45172;55.006;73.460;2022-10-16T14:43:37;100687.78;;;8.65;nan
59375;BME280;45172;55.006;73.460;2022-10-16T14:46:09;100723.72;;;8.59;nan
59375;BME280;45172;55.006;73.460;2022-10-16T14:48:41;100700.91;;;8.34;nan
59375;BME280;45172;55.006;73.460;2022-10-16T14:51:15;100728.25;;;8.63;nan
59375;BME280;45172;55.006;73.460;2022-10-16T14:53:49;100732.53;;;8.60;nan
59375;BME280;45172;55.006;73.460;2022-10-16T14:56:20;100722.00;;;8.32;nan
59375;BME280;45172;55.006;73.460;2022-10-16T14:58:48;100725.16;;;8.20;nan
59375;BME280;45172;55.006;73.460;2022-10-16T15:01:15;100720.53;;;8.13;nan
59375;BME280;45172;55.006;73.460;2022-10-16T15:03:41;100722.84;;;8.31;nan
59375;BME280;45172;55.006;73.460;2022-10-16T15:06:12;100717.72;;;8.07;nan
59375;BME280;45172;55.006;73.460;2022-10-16T15:08:48;100692.25;;;8.09;nan
59375;BME280;45172;55.006;73.460;2022-10-16T15:11:17;100720.25;;;8.33;nan
59375;BME280;45172;55.006;73.460;2022-10-16T15:13:43;100716.63;;;8.29;nan
59375;BME280;45172;55.006;73.460;2022-10-16T15:16:19;100709.41;;;8.23;nan
59375;BME280;45172;55.006;73.460;2022-10-16T15:18:45;100713.09;;;8.00;nan
59375;BME280;45172;55.006;73.460;2022-10-16T15:21:23;100718.72;;;8.12;nan
59375;BME280;45172;55.006;73.460;2022-10-16T15:23:50;100711.47;;;7.77;nan
59375;BME280;45172;55.006;73.460;2022-10-16T15:28:42;100713.03;;;7.71;nan
59375;BME280;45172;55.006;73.460;2022-10-16T15:31:08;100726.78;;;7.88;nan
59375;BME280;45172;55.006;73.460;2022-10-16T15:33:44;100718.59;;;7.80;nan
59375;BME280;45172;55.006;73.460;2022-10-16T15:36:17;100701.13;;;7.30;nan
59375;BME280;45172;55.006;73.460;2022-10-16T15:38:43;100718.06;;;7.37;nan
59375;BME280;45172;55.006;73.460;2022-10-16T15:41:11;100723.38;;;7.64;nan
59375;BME280;45172;55.006;73.460;2022-10-16T15:43:37;100718.00;;;7.61;nan
59375;BME280;45172;55.006;73.460;2022-10-16T15:46:13;100717.09;;;7.61;nan